createdAt,value
2022-09-23T00:00:14.870Z,69.34
2022-09-23T00:02:45.900Z,69.40
2022-09-23T00:05:12.832Z,69.93
2022-09-23T00:07:40.543Z,69.35
2022-09-23T00:10:08.193Z,69.70
2022-09-23T00:12:35.090Z,69.66
2022-09-23T00:15:03.332Z,69.84
2022-09-23T00:17:33.606Z,69.73
2022-09-23T00:20:02.155Z,69.72
2022-09-23T00:22:28.972Z,69.68
2022-09-23T00:24:55.625Z,69.68
2022-09-23T00:27:22.592Z,69.69
2022-09-23T00:29:49.265Z,69.93
2022-09-23T00:32:16.001Z,69.87
2022-09-23T00:34:44.443Z,69.84
2022-09-23T00:37:12.854Z,70.20
2022-09-23T00:39:39.590Z,69.88
2022-09-23T00:42:06.525Z,70.39
2022-09-23T00:44:45.453Z,69.97
2022-09-23T00:47:18.535Z,70.41
2022-09-23T00:49:47.866Z,70.33
2022-09-23T00:52:19.606Z,70.13
2022-09-23T00:54:47.370Z,70.39
2022-09-23T00:57:16.221Z,70.34
2022-09-23T00:59:44.114Z,70.72
2022-09-23T01:02:13.597Z,70.59
2022-09-23T01:04:41.056Z,70.72
2022-09-23T01:07:08.128Z,70.27
2022-09-23T01:09:36.826Z,70.35
2022-09-23T01:12:18.430Z,70.27
2022-09-23T01:14:49.003Z,71.09
2022-09-23T01:17:24.071Z,70.55
2022-09-23T01:20:13.798Z,70.49
2022-09-23T01:22:46.666Z,70.63
2022-09-23T01:25:29.409Z,70.79
2022-09-23T01:28:16.178Z,70.52
2022-09-23T01:30:53.647Z,70.63
2022-09-23T01:33:25.012Z,70.84
2022-09-23T01:36:07.108Z,70.63
2022-09-23T01:38:44.998Z,70.94
2022-09-23T01:41:31.061Z,71.07
2022-09-23T01:44:04.105Z,70.85
2022-09-23T01:46:37.989Z,71.12
2022-09-23T01:49:09.960Z,71.10
2022-09-23T01:51:41.473Z,71.15
2022-09-23T01:54:10.641Z,71.64
2022-09-23T01:56:42.828Z,71.19
2022-09-23T01:59:14.866Z,70.81
2022-09-23T02:01:55.900Z,71.00
2022-09-23T02:04:28.219Z,70.90
2022-09-23T02:06:59.181Z,70.89
2022-09-23T02:09:31.815Z,70.65
2022-09-23T02:12:05.533Z,70.60
2022-09-23T02:14:36.351Z,70.56
2022-09-23T02:17:10.668Z,70.90
2022-09-23T02:19:42.734Z,70.50
2022-09-23T02:22:12.910Z,71.14
2022-09-23T02:24:40.442Z,71.15
2022-09-23T02:27:15.510Z,70.94
2022-09-23T02:29:50.508Z,71.40
2022-09-23T02:32:23.725Z,71.24
2022-09-23T02:34:58.732Z,71.29
2022-09-23T02:37:35.803Z,71.19
2022-09-23T02:40:14.227Z,71.10
2022-09-23T02:42:49.638Z,71.38
2022-09-23T02:45:17.078Z,71.63
2022-09-23T02:47:50.042Z,71.75
2022-09-23T02:50:19.037Z,72.19
2022-09-23T02:52:46.579Z,71.97
2022-09-23T02:55:16.958Z,71.77
2022-09-23T02:57:44.846Z,71.84
2022-09-23T03:00:13.202Z,72.21
2022-09-23T03:02:57.317Z,72.37
2022-09-23T03:05:28.124Z,72.44
2022-09-23T03:08:13.713Z,72.28
2022-09-23T03:10:52.733Z,72.57
2022-09-23T03:13:29.491Z,72.64
2022-09-23T03:16:08.881Z,72.57
2022-09-23T03:18:42.868Z,72.86
2022-09-23T03:21:16.268Z,72.88
2022-09-23T03:23:46.518Z,72.61
2022-09-23T03:26:18.922Z,72.85
2022-09-23T03:28:49.773Z,73.01
2022-09-23T03:31:17.418Z,72.98
2022-09-23T03:33:50.367Z,73.06
2022-09-23T03:36:21.719Z,73.40
2022-09-23T03:38:51.814Z,73.29
2022-09-23T03:41:25.004Z,73.37
2022-09-23T03:43:54.128Z,73.26
2022-09-23T03:46:21.677Z,73.40
2022-09-23T03:48:49.877Z,73.11
2022-09-23T03:51:22.011Z,72.90
2022-09-23T03:53:48.851Z,73.25
2022-09-23T03:56:15.598Z,73.31
2022-09-23T03:58:42.481Z,73.45
2022-09-23T04:01:10.741Z,73.35
2022-09-23T04:03:37.642Z,73.70
2022-09-23T04:06:09.788Z,73.29
2022-09-23T04:08:36.478Z,73.45
2022-09-23T04:11:04.445Z,73.25
2022-09-23T04:13:32.117Z,73.82
2022-09-23T04:15:59.171Z,73.59
2022-09-23T04:18:26.052Z,73.40
2022-09-23T04:20:57.863Z,73.71
2022-09-23T04:23:28.475Z,73.77
2022-09-23T04:25:55.480Z,73.76
2022-09-23T04:28:22.769Z,74.15
2022-09-23T04:30:49.516Z,74.04
2022-09-23T04:33:17.069Z,73.90
2022-09-23T04:35:43.887Z,73.95
2022-09-23T04:38:12.213Z,74.17
2022-09-23T04:40:40.736Z,74.29
2022-09-23T04:43:11.710Z,74.38
2022-09-23T04:45:40.908Z,73.67
2022-09-23T04:48:09.675Z,74.11
2022-09-23T04:50:38.108Z,74.09
2022-09-23T04:53:05.610Z,74.01
2022-09-23T04:55:35.696Z,74.05
2022-09-23T04:58:12.326Z,73.86
2022-09-23T05:00:39.264Z,73.75
2022-09-23T05:03:08.208Z,74.09
2022-09-23T05:05:34.864Z,74.15
2022-09-23T05:08:02.417Z,74.20
2022-09-23T05:10:30.846Z,73.80
2022-09-23T05:12:58.060Z,74.46
2022-09-23T05:15:26.518Z,74.06
2022-09-23T05:17:53.498Z,74.18
2022-09-23T05:20:28.369Z,73.95
2022-09-23T05:22:55.519Z,74.50
2022-09-23T05:25:22.423Z,74.40
2022-09-23T05:27:49.218Z,74.36
2022-09-23T05:30:16.477Z,74.23
2022-09-23T05:32:44.587Z,74.43
2022-09-23T05:35:11.318Z,74.27
2022-09-23T05:37:38.043Z,74.46
2022-09-23T05:40:05.723Z,74.43
2022-09-23T05:42:33.125Z,74.63
2022-09-23T05:44:59.810Z,74.38
2022-09-23T05:47:27.083Z,74.38
2022-09-23T05:50:00.182Z,74.35
2022-09-23T05:52:27.837Z,74.37
2022-09-23T05:54:56.945Z,74.39
2022-09-23T05:57:23.936Z,74.19
2022-09-23T05:59:50.587Z,74.42
2022-09-23T06:02:17.803Z,74.33
2022-09-23T06:04:44.813Z,74.34
2022-09-23T06:07:12.874Z,74.38
2022-09-23T06:09:39.638Z,74.29
2022-09-23T06:12:06.945Z,74.17
2022-09-23T06:14:33.619Z,74.26
2022-09-23T06:17:00.361Z,74.31
2022-09-23T06:19:28.703Z,74.03
2022-09-23T06:21:55.365Z,74.35
2022-09-23T06:24:30.123Z,74.06
2022-09-23T06:26:58.298Z,74.12
2022-09-23T06:29:25.023Z,74.13
2022-09-23T06:31:51.722Z,73.90
2022-09-23T06:34:21.056Z,74.13
2022-09-23T06:36:48.284Z,74.03
2022-09-23T06:39:15.764Z,73.86
2022-09-23T06:41:44.779Z,73.99
2022-09-23T06:44:11.673Z,73.86
2022-09-23T06:46:38.488Z,73.58
2022-09-23T06:49:05.385Z,73.69
2022-09-23T06:51:32.631Z,73.88
2022-09-23T06:53:59.488Z,74.18
2022-09-23T06:56:26.660Z,73.69
2022-09-23T06:58:55.024Z,73.92
2022-09-23T07:01:21.898Z,73.97
2022-09-23T07:03:52.372Z,74.07
2022-09-23T07:06:19.176Z,74.08
2022-09-23T07:08:46.368Z,73.85
2022-09-23T07:11:14.046Z,74.09
2022-09-23T07:13:52.280Z,74.00
2022-09-23T07:16:23.912Z,73.71
2022-09-23T07:18:51.016Z,73.77
2022-09-23T07:21:19.311Z,74.20
2022-09-23T07:23:49.028Z,73.95
2022-09-23T07:26:23.305Z,73.57
2022-09-23T07:28:57.060Z,73.55
2022-09-23T07:31:38.376Z,74.02
2022-09-23T07:34:13.342Z,73.55
2022-09-23T07:36:40.576Z,73.67
2022-09-23T07:39:12.085Z,73.78
2022-09-23T07:41:39.497Z,73.80
2022-09-23T07:44:06.522Z,73.87
2022-09-23T07:46:49.728Z,73.75
2022-09-23T07:49:16.585Z,73.65
2022-09-23T07:51:43.553Z,73.64
2022-09-23T07:54:12.701Z,73.24
2022-09-23T07:56:39.676Z,73.44
2022-09-23T07:59:07.938Z,73.59
2022-09-23T08:01:38.112Z,73.25
2022-09-23T08:04:10.522Z,73.20
2022-09-23T08:06:41.743Z,73.08
2022-09-23T08:09:08.916Z,73.39
2022-09-23T08:11:38.674Z,73.31
2022-09-23T08:14:12.111Z,73.22
2022-09-23T08:16:41.785Z,73.25
2022-09-23T08:19:10.289Z,73.30
2022-09-23T08:21:47.985Z,73.20
2022-09-23T08:24:18.394Z,73.23
2022-09-23T08:26:46.432Z,73.07
2022-09-23T08:29:14.175Z,72.93
2022-09-23T08:31:41.335Z,72.58
2022-09-23T08:34:10.021Z,72.13
2022-09-23T08:36:37.034Z,72.54
2022-09-23T08:39:06.696Z,72.31
2022-09-23T08:41:43.573Z,71.99
2022-09-23T08:44:16.552Z,71.77
2022-09-23T08:46:49.519Z,71.56
2022-09-23T08:49:24.688Z,71.22
2022-09-23T08:51:54.461Z,71.13
2022-09-23T08:54:29.894Z,71.21
2022-09-23T08:57:07.837Z,71.06
2022-09-23T08:59:47.339Z,70.62
2022-09-23T09:02:18.408Z,70.43
2022-09-23T09:04:54.223Z,70.38
2022-09-23T09:07:41.710Z,70.32
2022-09-23T09:10:19.690Z,70.06
2022-09-23T09:12:51.021Z,70.19
2022-09-23T09:15:24.359Z,69.85
2022-09-23T09:18:02.927Z,70.10
2022-09-23T09:20:39.914Z,69.90
2022-09-23T09:23:20.848Z,69.87
2022-09-23T09:25:50.036Z,69.98
2022-09-23T09:28:25.251Z,69.63
2022-09-23T09:30:56.266Z,69.58
2022-09-23T09:33:31.715Z,69.33
2022-09-23T09:36:09.674Z,69.62
2022-09-23T09:38:37.022Z,70.02
2022-09-23T09:41:13.881Z,69.84
2022-09-23T09:43:44.206Z,69.77
2022-09-23T09:46:25.774Z,69.75
2022-09-23T09:48:56.323Z,69.91
2022-09-23T09:51:28.728Z,70.00
2022-09-23T09:54:15.080Z,69.86
2022-09-23T09:56:42.617Z,70.12
2022-09-23T09:59:11.472Z,69.73
2022-09-23T10:01:42.995Z,69.71
2022-09-23T10:04:20.754Z,69.68
2022-09-23T10:07:05.524Z,69.36
2022-09-23T10:09:35.068Z,69.62
2022-09-23T10:12:12.832Z,69.32
2022-09-23T10:14:39.767Z,69.26
2022-09-23T10:17:08.514Z,69.31
2022-09-23T10:19:38.195Z,69.17
2022-09-23T10:22:18.403Z,69.08
2022-09-23T10:24:49.287Z,68.88
2022-09-23T10:27:51.735Z,68.97
2022-09-23T10:30:26.979Z,68.93
2022-09-23T10:32:56.983Z,68.69
2022-09-23T10:35:25.203Z,68.77
2022-09-23T10:38:28.423Z,68.68
2022-09-23T10:40:56.965Z,68.62
2022-09-23T10:43:32.894Z,68.69
2022-09-23T10:46:04.184Z,68.72
2022-09-23T10:48:57.112Z,68.63
2022-09-23T10:51:32.763Z,68.64
2022-09-23T10:54:09.987Z,68.55
2022-09-23T10:56:43.015Z,68.61
2022-09-23T10:59:31.983Z,68.79
2022-09-23T11:02:15.671Z,68.38
2022-09-23T11:05:17.030Z,68.54
2022-09-23T11:11:26.731Z,69.15
2022-09-23T11:15:00.210Z,69.63
2022-09-23T11:18:13.189Z,69.76
2022-09-23T11:24:52.857Z,70.56
2022-09-23T11:27:47.888Z,70.89
2022-09-23T11:30:42.375Z,71.42
2022-09-23T11:34:05.667Z,71.66
2022-09-23T11:40:26.774Z,72.31
2022-09-23T11:43:00.074Z,72.43
2022-09-23T11:48:46.989Z,72.62
2022-09-23T11:51:19.374Z,73.15
2022-09-23T11:54:27.749Z,73.63
2022-09-23T12:00:26.984Z,73.85
2022-09-23T12:06:02.883Z,73.91
2022-09-23T12:08:34.972Z,73.87
2022-09-23T12:19:25.065Z,74.40
2022-09-23T12:22:23.057Z,74.62
2022-09-23T12:25:16.021Z,74.26
2022-09-23T12:28:20.923Z,74.50
2022-09-23T12:30:50.192Z,74.87
2022-09-23T12:34:11.647Z,74.96
2022-09-23T12:37:17.790Z,75.14
2022-09-23T12:40:17.088Z,75.20
2022-09-23T12:42:54.220Z,75.72
2022-09-23T12:45:47.001Z,75.82
2022-09-23T12:48:45.857Z,76.39
2022-09-23T12:51:20.709Z,76.17
2022-09-23T12:54:20.250Z,76.48
2022-09-23T12:57:00.805Z,76.65
2022-09-23T12:59:50.598Z,76.93
2022-09-23T13:02:31.114Z,77.08
2022-09-23T13:05:18.960Z,77.54
2022-09-23T13:07:58.938Z,77.75
2022-09-23T13:10:54.492Z,77.89
2022-09-23T13:21:00.627Z,79.52
2022-09-23T13:28:01.476Z,79.03
2022-09-23T13:31:15.737Z,79.29
2022-09-23T13:37:31.175Z,79.87
2022-09-23T13:40:10.255Z,79.86
2022-09-23T13:42:40.826Z,80.11
2022-09-23T13:45:15.570Z,80.31
2022-09-23T13:47:43.798Z,80.56
2022-09-23T13:50:24.418Z,80.48
2022-09-23T14:03:17.924Z,81.02
2022-09-23T14:05:45.630Z,80.87
2022-09-23T14:08:14.610Z,80.93
2022-09-23T14:10:41.978Z,81.03
2022-09-23T14:13:15.717Z,81.26
2022-09-23T14:15:42.640Z,81.43
2022-09-23T14:18:14.702Z,81.22
2022-09-23T14:20:46.361Z,81.21
2022-09-23T14:23:14.629Z,81.39
2022-09-23T14:25:43.291Z,81.37
2022-09-23T14:28:15.085Z,81.49
2022-09-23T14:30:42.413Z,81.64
2022-09-23T14:33:11.114Z,82.07
2022-09-23T14:35:44.693Z,81.90
2022-09-23T14:38:11.552Z,81.70
2022-09-23T14:40:51.836Z,81.57
2022-09-23T14:43:23.879Z,81.62
2022-09-23T14:45:53.751Z,81.67
2022-09-23T14:48:24.559Z,81.49
2022-09-23T14:50:56.507Z,81.22
2022-09-23T14:53:34.302Z,81.05
2022-09-23T14:56:18.175Z,81.24
2022-09-23T14:58:52.259Z,81.28
2022-09-23T15:01:37.600Z,81.06
2022-09-23T15:04:14.189Z,81.22
2022-09-23T15:06:48.639Z,81.35
2022-09-23T15:09:27.853Z,81.57
2022-09-23T15:18:28.920Z,82.13
2022-09-23T15:31:42.627Z,82.14
2022-09-23T15:37:26.544Z,82.23
2022-09-23T15:43:20.169Z,82.07
2022-09-23T15:53:13.126Z,82.47
2022-09-23T16:03:07.482Z,82.42
2022-09-23T16:05:58.705Z,82.78
2022-09-23T16:08:58.953Z,82.62
2022-09-23T16:11:52.618Z,82.79
2022-09-23T16:14:20.394Z,83.08
2022-09-23T16:16:47.328Z,83.08
2022-09-23T16:19:21.469Z,83.05
2022-09-23T16:21:51.079Z,83.04
2022-09-23T16:25:01.765Z,83.31
2022-09-23T16:27:30.981Z,83.31
2022-09-23T16:29:59.571Z,83.28
2022-09-23T16:32:29.325Z,83.26
2022-09-23T16:35:07.865Z,83.33
2022-09-23T16:37:37.664Z,83.36
2022-09-23T16:40:10.398Z,83.27
2022-09-23T16:43:06.601Z,83.31
2022-09-23T16:45:41.167Z,83.32
2022-09-23T16:48:15.983Z,83.67
2022-09-23T16:51:02.832Z,83.59
2022-09-23T16:53:40.998Z,83.75
2022-09-23T16:56:27.985Z,83.79
2022-09-23T16:59:04.928Z,84.11
2022-09-23T17:01:45.257Z,83.96
2022-09-23T17:04:17.039Z,83.88
2022-09-23T17:06:54.827Z,84.20
2022-09-23T17:09:30.871Z,83.99
2022-09-23T17:12:05.519Z,83.88
2022-09-23T17:14:34.607Z,84.16
2022-09-23T17:17:10.211Z,83.93
2022-09-23T17:19:38.007Z,83.96
2022-09-23T17:22:11.860Z,84.27
2022-09-23T17:25:03.591Z,84.24
2022-09-23T17:28:00.844Z,84.97
2022-09-23T17:30:37.735Z,84.16
2022-09-23T17:33:26.438Z,84.35
2022-09-23T17:36:21.713Z,84.42
2022-09-23T17:38:58.165Z,84.47
2022-09-23T17:41:37.346Z,84.70
2022-09-23T17:44:06.737Z,84.48
2022-09-23T17:46:35.239Z,84.71
2022-09-23T17:49:10.984Z,84.96
2022-09-23T17:52:02.869Z,85.18
2022-09-23T17:54:56.749Z,85.06
2022-09-23T17:57:23.891Z,85.27
2022-09-23T18:00:14.184Z,85.36
2022-09-23T18:02:43.736Z,85.50
2022-09-23T18:05:19.714Z,85.78
2022-09-23T18:07:52.798Z,85.71
2022-09-23T18:10:39.012Z,85.75
2022-09-23T18:13:08.522Z,85.96
2022-09-23T18:15:55.856Z,86.06
2022-09-23T18:18:31.954Z,86.05
2022-09-23T18:21:00.912Z,86.26
2022-09-23T18:23:39.418Z,86.41
2022-09-23T18:26:26.347Z,86.51
2022-09-23T18:28:59.831Z,86.59
2022-09-23T18:31:41.798Z,86.69
2022-09-23T18:34:29.857Z,86.71
2022-09-23T18:37:15.261Z,86.92
2022-09-23T18:39:56.394Z,86.87
2022-09-23T18:46:21.481Z,87.19
2022-09-23T18:56:42.829Z,87.07
2022-09-23T19:02:09.101Z,87.39
2022-09-23T19:04:41.777Z,87.46
2022-09-23T19:07:49.841Z,87.25
2022-09-23T19:10:44.003Z,87.39
2022-09-23T19:13:37.931Z,87.66
2022-09-23T19:16:39.652Z,87.69
2022-09-23T19:19:12.268Z,88.18
2022-09-23T19:22:25.077Z,87.54
2022-09-23T19:24:54.768Z,87.54
2022-09-23T19:27:34.252Z,87.47
2022-09-23T19:30:09.175Z,87.61
2022-09-23T19:32:36.296Z,88.02
2022-09-23T19:35:08.679Z,87.94
2022-09-23T19:37:57.130Z,88.17
2022-09-23T19:40:32.824Z,88.39
2022-09-23T19:43:07.369Z,88.19
2022-09-23T19:45:43.169Z,88.27
2022-09-23T19:48:11.548Z,88.34
2022-09-23T19:50:53.794Z,88.28
2022-09-23T19:53:32.791Z,88.30
2022-09-23T19:56:03.961Z,88.00
2022-09-23T19:58:55.778Z,88.31
2022-09-23T20:01:41.510Z,88.13
2022-09-23T20:04:19.845Z,88.45
2022-09-23T20:06:51.531Z,88.43
2022-09-23T20:09:32.477Z,88.48
2022-09-23T20:12:08.123Z,88.50
2022-09-23T20:14:38.968Z,88.53
2022-09-23T20:17:09.666Z,88.59
2022-09-23T20:19:48.093Z,88.51
2022-09-23T20:22:21.321Z,88.32
2022-09-23T20:24:50.559Z,88.35
2022-09-23T20:27:20.109Z,88.22
2022-09-23T20:29:49.302Z,88.20
2022-09-23T20:32:26.971Z,88.50
2022-09-23T20:34:59.908Z,88.36
2022-09-23T20:37:29.828Z,88.58
2022-09-23T20:40:06.700Z,88.71
2022-09-23T20:42:42.839Z,88.64
2022-09-23T20:45:12.539Z,88.69
2022-09-23T20:47:43.310Z,88.78
2022-09-23T20:50:12.331Z,88.68
2022-09-23T20:55:25.828Z,88.76
2022-09-23T20:58:04.064Z,88.83
2022-09-23T21:00:32.390Z,88.89
2022-09-23T21:06:01.953Z,88.86
2022-09-23T21:08:35.058Z,88.88
2022-09-23T21:11:33.227Z,88.74
2022-09-23T21:14:21.563Z,88.79
2022-09-23T21:17:08.942Z,88.74
2022-09-23T21:19:43.330Z,88.80
2022-09-23T21:22:19.912Z,88.70
2022-09-23T21:28:03.634Z,88.73
2022-09-23T21:30:48.519Z,89.07
2022-09-23T21:33:18.135Z,89.25
2022-09-23T21:35:57.145Z,89.02
2022-09-23T21:38:30.347Z,89.14
2022-09-23T21:43:57.246Z,89.42
2022-09-23T21:46:39.892Z,89.45
2022-09-23T21:49:21.700Z,89.46
2022-09-23T21:51:55.377Z,89.53
2022-09-23T21:54:35.637Z,89.55
2022-09-23T21:57:22.354Z,89.73
2022-09-23T21:59:57.762Z,89.59
2022-09-23T22:02:51.986Z,89.79
2022-09-23T22:05:35.347Z,89.70
2022-09-23T22:08:22.910Z,89.84
2022-09-23T22:10:49.916Z,89.95
2022-09-23T22:13:27.115Z,90.04
2022-09-23T22:18:45.182Z,90.04
2022-09-23T22:21:32.181Z,90.06
2022-09-23T22:24:11.373Z,90.21
2022-09-23T22:26:42.444Z,90.43
2022-09-23T22:29:22.837Z,90.31
2022-09-23T22:31:54.927Z,90.72
2022-09-23T22:34:49.973Z,90.66
2022-09-23T22:37:20.911Z,90.66
2022-09-23T22:39:55.238Z,90.92
2022-09-23T22:42:30.431Z,90.92
2022-09-23T22:45:00.575Z,91.11
2022-09-23T22:47:35.432Z,91.29
2022-09-23T22:50:18.658Z,91.16
2022-09-23T22:52:46.045Z,91.21
2022-09-23T22:55:15.867Z,91.21
2022-09-23T22:57:51.996Z,91.36
2022-09-23T23:00:26.581Z,91.40
2022-09-23T23:03:05.959Z,91.20
2022-09-23T23:05:37.350Z,91.21
2022-09-23T23:08:13.455Z,91.12
2022-09-23T23:10:40.197Z,91.18
2022-09-23T23:13:15.850Z,91.34
2022-09-23T23:15:49.177Z,91.31
2022-09-23T23:21:23.506Z,91.10
2022-09-23T23:24:15.259Z,90.99
2022-09-23T23:26:57.948Z,91.72
2022-09-23T23:29:35.686Z,91.49
2022-09-23T23:32:08.617Z,91.29
2022-09-23T23:34:41.239Z,91.40
2022-09-23T23:37:31.020Z,91.33
2022-09-23T23:40:07.768Z,91.41
2022-09-23T23:42:37.596Z,91.66
2022-09-23T23:45:08.614Z,91.59
2022-09-23T23:47:38.439Z,91.70
2022-09-23T23:50:11.249Z,91.86
2022-09-23T23:52:44.868Z,92.37
2022-09-23T23:55:17.873Z,92.04
2022-09-23T23:57:58.551Z,92.00
